Terminal Aerodrome Forecast
Issued by NWS Cleveland, OH

Home | Current Version | Previous Version | Graphics & Text | Print | Product List | Glossary On
Versions: 1 2 3 4 5 6 7 8 9 10 11 12 13 14 15 16 17 18 19 20 21
181
FTUS41 KCLE 301541 AAB
TAFMFD
TAF AMD
KMFD 301541Z 3016/0112 17010KT 4SM BR OVC004
      TEMPO 3016/3018 P6SM NSW OVC015
     FM301800 22010KT P6SM BKN015
     FM302200 25010KT P6SM BKN025
      TEMPO 3023/0101 5SM -SHRA OVC015
     FM010600 26012KT P6SM BKN025=

USA.gov is the U.S. government's official web portal to all federal, state and local government web resources and services.